Time;durP1;ratioP1;P1;durP2;ratioP2;P2;SDS_P1;SDS_P2;PMS_P1;PMS_P2;Temp;Humidity;BMP_temperature;BMP_pressure;BME280_temperature;BME280_humidity;BME280_pressure;Samples;Min_cycle;Max_cycle;Signal;HPM_P1;HPM_P2
2021/07/04 07:39:42;;;;;;;1037.13;960.42;;;19.90;99.90;;;;;;5152582;27;20536;-71
2021/07/04 07:42:08;;;;;;;1195.03;999.90;;;19.90;99.90;;;;;;5131777;28;20631;-71
2021/07/04 07:44:33;;;;;;;1240.15;999.90;;;20.00;99.90;;;;;;5131705;28;20627;-71
2021/07/04 07:46:59;;;;;;;1308.28;999.90;;;20.10;99.90;;;;;;5131649;28;20162;-71
2021/07/04 07:49:25;;;;;;;1329.90;999.90;;;20.20;99.90;;;;;;5131559;28;20186;-71
2021/07/04 07:51:50;;;;;;;1326.35;999.90;;;20.20;99.90;;;;;;5131510;28;20716;-71
2021/07/04 07:54:20;;;;;;;1334.13;999.90;;;20.40;99.90;;;;;;5131531;28;20173;-71
2021/07/04 07:56:46;;;;;;;1325.80;999.90;;;20.30;99.90;;;;;;5131515;28;20183;-71
2021/07/04 07:59:12;;;;;;;1295.18;999.90;;;20.30;99.90;;;;;;5093774;28;20685;-71
2021/07/04 08:01:38;;;;;;;1294.88;999.90;;;20.40;99.90;;;;;;5092636;28;20171;-71
2021/07/04 08:04:03;;;;;;;1319.82;999.90;;;20.40;99.90;;;;;;5092628;28;20224;-71
2021/07/04 08:06:29;;;;;;;1319.80;999.90;;;20.30;99.90;;;;;;5110711;28;20194;-71
2021/07/04 08:08:54;;;;;;;1319.97;999.90;;;20.40;99.90;;;;;;5110775;28;20517;-71
2021/07/04 08:11:20;;;;;;;1312.20;999.90;;;20.40;99.90;;;;;;5110714;28;20175;-71
2021/07/04 08:13:45;;;;;;;1292.85;999.90;;;20.50;99.90;;;;;;5110609;28;20167;-71
2021/07/04 08:16:14;;;;;;;1296.63;999.90;;;20.50;99.90;;;;;;5110556;28;20167;-71
2021/07/04 08:18:40;;;;;;;1309.18;999.90;;;20.60;99.90;;;;;;5110459;28;20194;-71
2021/07/04 08:21:05;;;;;;;1272.47;999.90;;;20.60;99.90;;;;;;5110391;28;20178;-71
2021/07/04 08:23:31;;;;;;;1277.93;999.90;;;20.60;99.90;;;;;;5110407;28;20158;-71
2021/07/04 08:25:56;;;;;;;1275.88;999.90;;;20.50;99.90;;;;;;5110424;28;20190;-71
2021/07/04 08:28:22;;;;;;;1290.45;999.90;;;20.50;99.90;;;;;;5110344;28;20191;-71
2021/07/04 08:30:48;;;;;;;1275.47;999.90;;;20.40;99.90;;;;;;5092064;28;20686;-71
2021/07/04 08:33:14;;;;;;;1275.45;999.90;;;20.50;99.90;;;;;;5110217;28;20255;-71
2021/07/04 08:35:40;;;;;;;1265.40;999.90;;;20.50;99.90;;;;;;5110150;28;20167;-71
2021/07/04 08:38:05;;;;;;;1274.90;999.90;;;20.50;99.90;;;;;;5109906;28;20301;-71
2021/07/04 08:40:31;;;;;;;1301.32;999.90;;;20.50;99.90;;;;;;5110117;28;20245;-71
2021/07/04 08:42:57;;;;;;;1301.15;999.90;;;20.60;99.90;;;;;;5091887;28;20173;-71
2021/07/04 08:45:23;;;;;;;1285.85;999.90;;;20.70;99.90;;;;;;5110030;28;20163;-71
2021/07/04 08:47:48;;;;;;;1303.40;999.90;;;20.90;99.90;;;;;;5109970;28;20624;-71
2021/07/04 08:50:14;;;;;;;1277.68;999.90;;;21.00;99.90;;;;;;5101117;28;20202;-72
2021/07/04 08:52:41;;;;;;;1255.30;999.90;;;21.10;99.90;;;;;;5078109;28;20179;-71
2021/07/04 08:55:09;;;;;;;1236.03;999.90;;;21.20;99.90;;;;;;5078110;28;20194;-71
2021/07/04 08:57:34;;;;;;;1219.35;999.90;;;21.20;99.90;;;;;;5096067;28;20587;-71
2021/07/04 09:00:01;;;;;;;1264.13;999.90;;;21.20;99.90;;;;;;5096221;28;20242;-71
2021/07/04 09:02:34;;;;;;;1232.38;999.90;;;21.20;99.90;;;;;;5077941;28;20170;-71
2021/07/04 09:05:09;;;;;;;1289.95;999.90;;;21.30;99.90;;;;;;5096063;28;20216;-71
2021/07/04 09:07:35;;;;;;;1299.82;999.90;;;21.40;99.90;;;;;;5096017;28;20179;-69
2021/07/04 09:10:05;;;;;;;1277.65;999.90;;;21.60;99.90;;;;;;5096001;28;20190;-69
2021/07/04 09:12:42;;;;;;;1264.75;999.90;;;21.80;99.90;;;;;;5077726;28;20171;-69
2021/07/04 09:15:23;;;;;;;1255.65;999.90;;;21.90;99.90;;;;;;5095922;28;20163;-69
2021/07/04 09:17:51;;;;;;;1259.22;999.90;;;22.00;99.90;;;;;;5077663;28;20554;-69
2021/07/04 09:20:32;;;;;;;1276.88;999.90;;;22.10;99.90;;;;;;5095760;28;20167;-69
2021/07/04 09:23:00;;;;;;;1277.97;999.90;;;22.20;99.90;;;;;;5095790;28;20246;-69
2021/07/04 09:25:30;;;;;;;1249.50;999.90;;;22.20;99.90;;;;;;5095695;28;20639;-69
2021/07/04 09:28:02;;;;;;;1247.20;999.90;;;22.30;99.90;;;;;;5095592;28;20167;-69
2021/07/04 09:30:37;;;;;;;1268.80;999.90;;;22.40;99.90;;;;;;5095351;28;20179;-69
2021/07/04 09:33:32;;;;;;;1245.32;999.90;;;22.40;99.90;;;;;;5095426;28;20196;-69
2021/07/04 09:36:03;;;;;;;1228.95;999.90;;;22.40;99.90;;;;;;5056951;28;20531;-69
2021/07/04 09:38:33;;;;;;;1195.15;999.90;;;22.50;99.90;;;;;;5077066;28;20328;-69
2021/07/04 09:40:59;;;;;;;1211.65;999.90;;;22.50;99.90;;;;;;5095284;28;20167;-69
2021/07/04 09:43:28;;;;;;;1202.45;999.90;;;22.50;99.90;;;;;;5095257;28;20528;-69
2021/07/04 09:45:55;;;;;;;1124.43;999.90;;;22.40;99.90;;;;;;5095119;28;20174;-69
2021/07/04 09:48:30;;;;;;;1107.25;999.90;;;22.40;99.90;;;;;;5095139;28;20175;-69
2021/07/04 09:51:01;;;;;;;1073.75;988.58;;;22.30;99.90;;;;;;5095084;28;20227;-69
2021/07/04 09:53:35;;;;;;;1080.78;992.92;;;22.30;99.90;;;;;;5095130;28;20650;-69
2021/07/04 09:56:15;;;;;;;1161.43;999.90;;;22.20;99.90;;;;;;5076742;28;20667;-69
2021/07/04 09:58:44;;;;;;;1098.25;999.90;;;22.20;99.90;;;;;;5094783;28;20199;-69
2021/07/04 10:01:10;;;;;;;1054.25;973.35;;;22.30;99.90;;;;;;5093895;28;20628;-69
2021/07/04 10:03:41;;;;;;;1078.28;992.83;;;22.20;99.90;;;;;;5094657;28;20254;-69
2021/07/04 10:06:09;;;;;;;1106.53;999.90;;;22.10;99.90;;;;;;5094769;28;20194;-69
2021/07/04 10:08:37;;;;;;;1066.35;983.58;;;22.00;99.90;;;;;;5094713;28;20194;-69
2021/07/04 10:11:09;;;;;;;1131.03;999.90;;;22.00;99.90;;;;;;5094651;28;20181;-69
2021/07/04 10:13:38;;;;;;;1108.68;999.90;;;21.90;99.90;;;;;;5094569;28;20171;-69
2021/07/04 10:16:09;;;;;;;1130.32;999.90;;;21.90;99.90;;;;;;5094532;28;20198;-69
2021/07/04 10:18:36;;;;;;;1102.28;999.90;;;22.00;99.90;;;;;;5094433;28;20202;-69
2021/07/04 10:21:03;;;;;;;1097.35;999.90;;;22.10;99.90;;;;;;5094466;28;20216;-69
2021/07/04 10:23:29;;;;;;;1050.03;969.22;;;22.20;99.90;;;;;;5076208;28;20261;-69
2021/07/04 10:25:58;;;;;;;1011.13;935.80;;;22.20;99.90;;;;;;5094398;28;20163;-69
2021/07/04 10:28:29;;;;;;;1065.60;982.17;;;22.30;99.90;;;;;;5094247;28;20689;-69
2021/07/04 10:30:56;;;;;;;1028.10;950.63;;;22.40;99.90;;;;;;5076060;28;20224;-69
2021/07/04 10:33:23;;;;;;;1070.68;986.47;;;22.40;99.90;;;;;;5094264;28;20569;-69
2021/07/04 10:35:50;;;;;;;1100.70;999.30;;;22.50;99.90;;;;;;5094346;28;20197;-69
2021/07/04 10:38:16;;;;;;;1069.43;985.95;;;22.60;99.90;;;;;;5094325;28;20210;-69
2021/07/04 10:40:42;;;;;;;1062.43;979.75;;;22.60;99.90;;;;;;5094118;28;20170;-69
2021/07/04 10:43:08;;;;;;;1087.10;996.28;;;22.60;99.90;;;;;;5094140;28;20246;-69
2021/07/04 10:45:37;;;;;;;986.42;914.75;;;22.60;99.90;;;;;;5094144;28;20211;-69
2021/07/04 10:48:18;;;;;;;1037.00;957.88;;;22.60;99.90;;;;;;5075926;28;20228;-69
2021/07/04 10:51:10;;;;;;;1252.30;999.90;;;22.40;99.90;;;;;;5094063;28;20166;-68
2021/07/04 10:53:50;;;;;;;1161.03;999.90;;;22.20;99.90;;;;;;5075920;28;20182;-68
2021/07/04 10:56:33;;;;;;;1230.03;999.90;;;21.90;99.90;;;;;;5094050;28;20167;-68
2021/07/04 10:59:14;;;;;;;1313.05;999.90;;;21.70;99.90;;;;;;5075575;28;20199;-67
2021/07/04 11:01:53;;;;;;;1318.97;999.90;;;21.60;99.90;;;;;;5093826;28;20170;-67
2021/07/04 11:04:27;;;;;;;1320.70;999.90;;;21.40;99.90;;;;;;5093863;28;20197;-67
2021/07/04 11:07:06;;;;;;;1321.32;999.90;;;21.10;99.90;;;;;;5093785;28;20220;-68
2021/07/04 11:09:56;;;;;;;1315.95;999.90;;;21.10;99.90;;;;;;5093766;28;20174;-68
2021/07/04 11:12:34;;;;;;;1332.15;999.90;;;21.00;99.90;;;;;;5093409;28;20167;-68
2021/07/04 11:15:12;;;;;;;1314.28;999.90;;;20.90;99.90;;;;;;5093621;28;20166;-68
2021/07/04 11:18:13;;;;;;;1323.97;999.90;;;20.80;99.90;;;;;;5093580;28;20202;-68
2021/07/04 11:20:39;;;;;;;1310.10;999.90;;;20.60;99.90;;;;;;4992010;28;20174;-68
2021/07/04 11:23:10;;;;;;;1330.63;999.90;;;20.50;99.90;;;;;;5073103;28;20191;-70
2021/07/04 11:25:41;;;;;;;1339.28;999.90;;;20.30;99.90;;;;;;5093419;28;20167;-70
2021/07/04 11:28:16;;;;;;;1313.78;999.90;;;20.20;99.90;;;;;;5075167;28;20196;-70
2021/07/04 11:30:48;;;;;;;1334.22;999.90;;;20.00;99.90;;;;;;5093438;28;20631;-70
2021/07/04 11:33:19;;;;;;;1314.00;999.90;;;19.80;99.90;;;;;;5093534;28;20171;-70
2021/07/04 11:35:46;;;;;;;1337.15;999.90;;;19.70;99.90;;;;;;5093391;28;20261;-70
2021/07/04 11:38:16;;;;;;;1339.03;999.90;;;19.60;99.90;;;;;;5093188;28;20214;-70
2021/07/04 11:40:43;;;;;;;1312.20;999.90;;;19.50;99.90;;;;;;5093423;28;20607;-70
2021/07/04 11:43:16;;;;;;;1326.15;999.90;;;19.40;99.90;;;;;;5093372;28;20190;-70
2021/07/04 11:45:54;;;;;;;1333.90;999.90;;;19.40;99.90;;;;;;5093381;28;20258;-68
2021/07/04 11:48:21;;;;;;;1336.60;999.90;;;19.40;99.90;;;;;;5093339;28;20167;-68
2021/07/04 11:50:53;;;;;;;1345.53;999.90;;;19.40;99.90;;;;;;5093299;28;20170;-70
2021/07/04 11:53:20;;;;;;;1333.57;999.90;;;19.30;99.90;;;;;;5093283;28;20174;-70
2021/07/04 11:55:56;;;;;;;1343.93;999.90;;;19.40;99.90;;;;;;5075175;28;20720;-70
2021/07/04 11:58:26;;;;;;;1342.05;999.90;;;19.40;99.90;;;;;;5075023;28;20694;-70
2021/07/04 12:00:52;;;;;;;1346.15;999.90;;;19.40;99.90;;;;;;5093239;28;20250;-70
2021/07/04 12:03:26;;;;;;;1326.65;999.90;;;19.40;99.90;;;;;;5075033;28;20251;-70
2021/07/04 12:05:52;;;;;;;1342.18;999.90;;;19.30;99.90;;;;;;5093196;28;20167;-70
2021/07/04 12:08:18;;;;;;;1336.97;999.90;;;19.30;99.90;;;;;;5074908;28;20527;-70
2021/07/04 12:10:52;;;;;;;1363.30;999.90;;;19.30;99.90;;;;;;5093098;28;20174;-70
2021/07/04 12:13:19;;;;;;;1357.53;999.90;;;19.20;99.90;;;;;;5074965;28;20170;-70
2021/07/04 12:15:49;;;;;;;1357.95;999.90;;;19.20;99.90;;;;;;5093028;28;20212;-70
2021/07/04 12:18:16;;;;;;;1376.45;999.90;;;19.20;99.90;;;;;;5074791;28;20259;-70
2021/07/04 12:20:50;;;;;;;1383.72;999.90;;;19.30;99.90;;;;;;5092892;28;20201;-70
2021/07/04 12:23:15;;;;;;;1437.97;999.90;;;19.40;99.90;;;;;;5092949;28;20175;-70
2021/07/04 12:25:43;;;;;;;1453.50;999.90;;;19.60;99.90;;;;;;5095342;28;20186;-70
2021/07/04 12:28:14;;;;;;;1423.97;999.90;;;19.80;99.90;;;;;;5096783;28;20233;-70
2021/07/04 12:30:48;;;;;;;1395.63;999.90;;;19.90;99.90;;;;;;5096792;28;20159;-70
2021/07/04 12:33:17;;;;;;;1442.43;999.90;;;20.00;99.90;;;;;;5096698;28;20197;-70
2021/07/04 12:35:43;;;;;;;1436.38;999.90;;;20.10;99.90;;;;;;5096628;28;20174;-70
2021/07/04 12:38:21;;;;;;;1469.50;999.90;;;20.20;99.90;;;;;;5096368;28;20299;-70
2021/07/04 12:40:53;;;;;;;1435.93;999.90;;;19.70;99.90;;;;;;5096538;28;20533;-70
2021/07/04 12:43:28;;;;;;;1485.97;999.90;;;20.30;99.90;;;;;;5096537;28;20155;-70
2021/07/04 12:45:55;;;;;;;1491.90;999.90;;;20.30;99.90;;;;;;5096458;28;20646;-70
2021/07/04 12:48:22;;;;;;;1475.38;999.90;;;20.10;99.90;;;;;;5096410;28;20178;-70
2021/07/04 12:50:53;;;;;;;1442.22;999.90;;;20.00;99.90;;;;;;5096323;28;20163;-70
2021/07/04 12:53:19;;;;;;;1368.45;999.90;;;19.90;99.90;;;;;;5096305;28;20631;-70
2021/07/04 12:55:54;;;;;;;1367.60;999.90;;;19.80;99.90;;;;;;5096240;28;20197;-70
2021/07/04 12:58:27;;;;;;;1355.38;999.90;;;19.80;99.90;;;;;;5096085;28;20206;-70
2021/07/04 13:00:55;;;;;;;1345.05;999.90;;;19.60;99.90;;;;;;5096158;28;20209;-70
2021/07/04 13:03:38;;;;;;;1346.43;999.90;;;19.50;99.90;;;;;;5077959;28;20199;-70
2021/07/04 13:06:04;;;;;;;1369.53;999.90;;;19.30;99.90;;;;;;5096128;28;20167;-70
2021/07/04 13:08:31;;;;;;;1362.40;999.90;;;19.20;99.90;;;;;;5095973;28;20174;-70
2021/07/04 13:10:56;;;;;;;1362.85;999.90;;;19.20;99.90;;;;;;5096000;28;20558;-70
2021/07/04 13:13:22;;;;;;;1353.45;999.90;;;19.20;99.90;;;;;;5077815;28;20217;-70
2021/07/04 13:15:48;;;;;;;1376.82;999.90;;;19.30;99.90;;;;;;5095867;28;20572;-70
2021/07/04 13:18:30;;;;;;;1372.85;999.90;;;19.40;99.90;;;;;;5077656;28;20656;-70
2021/07/04 13:20:56;;;;;;;1360.13;999.90;;;19.40;99.90;;;;;;5077629;28;20221;-70
2021/07/04 13:23:22;;;;;;;1385.97;999.90;;;19.40;99.90;;;;;;5095776;28;20168;-70
2021/07/04 13:25:54;;;;;;;1359.35;999.90;;;19.40;99.90;;;;;;5095650;28;20179;-70
2021/07/04 13:28:20;;;;;;;1368.82;999.90;;;19.40;99.90;;;;;;5095666;28;20624;-70
2021/07/04 13:30:51;;;;;;;1377.90;999.90;;;19.50;99.90;;;;;;5095625;28;20262;-70
2021/07/04 13:33:32;;;;;;;1387.20;999.90;;;19.40;99.90;;;;;;5095602;28;20224;-70
2021/07/04 13:36:11;;;;;;;1401.35;999.90;;;19.50;99.90;;;;;;5095426;28;20171;-70
2021/07/04 13:38:37;;;;;;;1398.90;999.90;;;19.50;99.90;;;;;;5095322;28;20219;-70
2021/07/04 13:41:03;;;;;;;1409.40;999.90;;;19.50;99.90;;;;;;5095274;28;20226;-70
2021/07/04 13:43:29;;;;;;;1422.00;999.90;;;19.50;99.90;;;;;;5095373;28;20203;-70
2021/07/04 13:45:55;;;;;;;1420.75;999.90;;;19.60;99.90;;;;;;5095284;28;20159;-70
2021/07/04 13:48:23;;;;;;;1450.30;999.90;;;19.60;99.90;;;;;;5095235;28;20178;-70
2021/07/04 13:50:52;;;;;;;1394.68;999.90;;;19.60;99.90;;;;;;5095246;28;20232;-70
2021/07/04 13:53:19;;;;;;;1443.00;999.90;;;19.60;99.90;;;;;;5095107;28;20175;-70
2021/07/04 13:55:46;;;;;;;1413.00;999.90;;;19.50;99.90;;;;;;5095145;28;20285;-70
2021/07/04 13:58:13;;;;;;;1384.95;999.90;;;19.50;99.90;;;;;;5076835;28;20199;-70
2021/07/04 14:00:40;;;;;;;1384.13;999.90;;;19.50;99.90;;;;;;5095001;28;20288;-70
2021/07/04 14:03:07;;;;;;;1310.80;999.90;;;19.40;99.90;;;;;;5094926;28;20251;-71
2021/07/04 14:05:33;;;;;;;1219.20;999.90;;;19.20;99.90;;;;;;5094994;28;20171;-71
2021/07/04 14:07:59;;;;;;;1184.15;999.90;;;18.40;99.90;;;;;;5094817;28;20585;-70
2021/07/04 14:10:25;;;;;;;988.80;918.50;;;17.70;99.90;;;;;;5094777;28;20664;-70
2021/07/04 14:12:50;;;;;;;944.80;879.10;;;17.00;99.90;;;;;;5094774;28;20175;-70
2021/07/04 14:15:16;;;;;;;782.25;733.47;;;16.80;99.90;;;;;;5094505;28;20176;-70
2021/07/04 14:17:42;;;;;;;695.15;652.47;;;16.40;99.90;;;;;;5094535;28;20497;-70
2021/07/04 14:20:10;;;;;;;611.20;575.22;;;16.20;99.90;;;;;;5076410;28;20167;-70
2021/07/04 14:22:36;;;;;;;565.95;534.40;;;16.00;99.90;;;;;;5094551;28;20196;-70
2021/07/04 14:25:05;;;;;;;623.60;586.97;;;15.90;99.90;;;;;;5094488;28;20186;-70
2021/07/04 14:27:31;;;;;;;571.25;539.00;;;15.90;99.90;;;;;;5094472;28;20193;-70
2021/07/04 14:29:57;;;;;;;561.90;530.60;;;15.80;99.90;;;;;;5094412;28;20282;-70
2021/07/04 14:32:24;;;;;;;569.38;537.60;;;15.80;99.90;;;;;;5094574;28;20254;-70
2021/07/04 14:34:50;;;;;;;526.13;497.67;;;15.80;99.90;;;;;;5094343;28;20247;-70
2021/07/04 14:37:16;;;;;;;536.38;507.05;;;15.70;99.90;;;;;;5094192;28;20203;-71
2021/07/04 14:39:42;;;;;;;569.90;537.80;;;15.60;99.90;;;;;;5094228;28;20206;-70
2021/07/04 14:42:07;;;;;;;595.47;561.28;;;15.60;99.90;;;;;;5094174;28;20171;-70
2021/07/04 14:44:33;;;;;;;648.08;609.35;;;15.60;99.90;;;;;;5094207;28;20175;-71
2021/07/04 14:46:59;;;;;;;662.78;622.85;;;15.70;99.90;;;;;;5093877;28;20164;-70
2021/07/04 14:49:25;;;;;;;674.95;633.72;;;15.60;99.90;;;;;;5093881;28;20179;-71
2021/07/04 14:51:54;;;;;;;645.67;606.92;;;15.50;99.90;;;;;;5075876;28;20172;-70
2021/07/04 14:54:22;;;;;;;621.40;585.10;;;15.50;99.90;;;;;;5075909;28;20196;-70
2021/07/04 15:15:15;;;;;;;373.10;355.15;;;14.80;99.90;;;;;;5070808;28;20588;-69
2021/07/04 15:17:41;;;;;;;421.05;400.15;;;14.80;99.90;;;;;;5070670;28;20168;-69
2021/07/04 15:20:07;;;;;;;394.75;375.40;;;14.80;99.90;;;;;;5070659;28;20180;-69
2021/07/04 15:22:33;;;;;;;374.80;356.67;;;14.90;99.90;;;;;;5070593;28;20675;-69
2021/07/04 15:24:58;;;;;;;395.65;376.15;;;14.90;99.90;;;;;;5070517;28;20172;-70
2021/07/04 15:27:24;;;;;;;356.10;339.05;;;15.20;99.90;;;;;;5070483;28;20211;-70
2021/07/04 15:29:49;;;;;;;416.48;395.85;;;15.00;99.90;;;;;;5070419;28;20260;-70
2021/07/04 15:32:15;;;;;;;419.83;398.85;;;15.30;99.90;;;;;;5070401;28;20518;-70
2021/07/04 15:34:41;;;;;;;436.75;414.95;;;15.40;99.90;;;;;;5068978;28;20204;-70
2021/07/04 15:37:07;;;;;;;480.38;455.33;;;15.50;99.90;;;;;;5069067;28;20173;-70
2021/07/04 15:39:32;;;;;;;527.22;498.75;;;15.50;99.90;;;;;;5070216;28;20161;-70
2021/07/04 15:41:58;;;;;;;562.92;531.45;;;15.70;99.90;;;;;;5070189;28;20175;-70
2021/07/04 15:44:24;;;;;;;605.00;570.35;;;15.90;99.90;;;;;;5069984;28;20263;-70
2021/07/04 15:46:51;;;;;;;672.65;631.80;;;16.00;99.90;;;;;;5070074;28;20191;-70
2021/07/04 15:49:18;;;;;;;699.13;656.13;;;15.90;99.90;;;;;;5070077;28;20176;-70
2021/07/04 15:51:45;;;;;;;687.17;644.53;;;16.00;99.90;;;;;;5069992;28;20169;-70
2021/07/04 15:54:11;;;;;;;703.72;660.65;;;16.10;99.90;;;;;;5069870;28;20727;-70
2021/07/04 15:56:37;;;;;;;722.45;677.83;;;16.10;99.90;;;;;;5069988;28;20645;-70
2021/07/04 15:59:05;;;;;;;747.65;700.75;;;16.20;99.90;;;;;;5068531;28;20189;-70
2021/07/04 16:01:31;;;;;;;783.78;733.92;;;16.20;99.90;;;;;;5069776;28;20247;-70
2021/07/04 16:03:57;;;;;;;818.58;765.80;;;16.30;99.90;;;;;;5068524;28;20564;-70
2021/07/04 16:06:24;;;;;;;830.70;776.80;;;16.40;99.90;;;;;;5069762;28;20165;-70
2021/07/04 16:08:53;;;;;;;839.50;785.22;;;16.50;99.90;;;;;;5069637;28;20169;-70
2021/07/04 16:11:19;;;;;;;853.67;798.00;;;16.40;99.90;;;;;;5069596;28;20219;-70
2021/07/04 16:13:44;;;;;;;852.13;796.35;;;16.40;99.90;;;;;;5069290;28;20686;-70
2021/07/04 16:16:10;;;;;;;860.88;804.60;;;16.50;99.90;;;;;;5069434;28;20243;-70
2021/07/04 16:18:36;;;;;;;859.13;803.40;;;16.50;99.90;;;;;;5068167;28;20165;-70
2021/07/04 16:21:01;;;;;;;874.95;817.63;;;16.60;99.90;;;;;;5069366;28;20169;-70
2021/07/04 16:23:27;;;;;;;895.92;836.10;;;16.60;99.90;;;;;;5069346;28;20630;-70
2021/07/04 16:25:53;;;;;;;920.05;857.70;;;16.60;99.90;;;;;;5060084;28;20173;-70
2021/07/04 16:28:18;;;;;;;920.00;857.60;;;16.70;99.90;;;;;;5056107;28;20220;-70
2021/07/04 16:30:44;;;;;;;969.13;900.65;;;16.70;99.90;;;;;;5055971;28;20200;-70
2021/07/04 16:33:10;;;;;;;983.85;914.47;;;16.90;99.90;;;;;;5055976;28;20224;-70
2021/07/04 16:35:36;;;;;;;1032.47;957.55;;;16.90;99.90;;;;;;5055942;28;20174;-70
2021/07/04 16:38:03;;;;;;;1072.45;989.15;;;17.10;99.90;;;;;;5056008;28;20203;-70
2021/07/04 16:40:28;;;;;;;1133.85;999.90;;;17.30;99.90;;;;;;5055889;28;20169;-70
2021/07/04 16:42:57;;;;;;;1188.20;999.90;;;17.40;99.90;;;;;;5055830;28;20295;-70
2021/07/04 16:45:25;;;;;;;1220.55;999.90;;;17.60;99.90;;;;;;5055747;28;20200;-70
2021/07/04 16:47:51;;;;;;;1213.00;999.90;;;17.70;99.90;;;;;;5055713;28;20169;-70
2021/07/04 16:50:17;;;;;;;1240.78;999.90;;;17.90;99.90;;;;;;5055671;28;20669;-70
2021/07/04 16:52:44;;;;;;;1244.47;999.90;;;17.90;99.90;;;;;;5055732;28;20215;-70
2021/07/04 16:55:11;;;;;;;1254.68;999.90;;;18.00;99.90;;;;;;5055519;28;20200;-70
2021/07/04 16:57:37;;;;;;;1272.85;999.90;;;18.00;99.90;;;;;;5054047;28;20201;-70
2021/07/04 17:00:05;;;;;;;1288.00;999.90;;;18.10;99.90;;;;;;5055455;28;20246;-70
2021/07/04 17:02:31;;;;;;;1310.22;999.90;;;18.20;99.90;;;;;;5055437;28;20196;-70
2021/07/04 17:04:56;;;;;;;1307.05;999.90;;;18.30;99.90;;;;;;5055195;28;20634;-70
2021/07/04 17:07:22;;;;;;;1331.40;999.90;;;18.40;99.90;;;;;;5055351;28;20173;-70
2021/07/04 17:09:47;;;;;;;1336.25;999.90;;;18.30;99.90;;;;;;5055191;28;20173;-70
2021/07/04 17:12:13;;;;;;;1309.57;999.90;;;18.30;99.90;;;;;;5055191;28;20165;-70
2021/07/04 17:14:39;;;;;;;1327.93;999.90;;;18.30;99.90;;;;;;5053647;28;20308;-70
2021/07/04 17:17:05;;;;;;;1321.22;999.90;;;18.20;99.90;;;;;;5055036;28;20169;-69
2021/07/04 17:19:31;;;;;;;1302.97;999.90;;;18.10;99.90;;;;;;5054988;28;20169;-70
2021/07/04 17:21:57;;;;;;;1298.53;999.90;;;18.10;99.90;;;;;;5054937;28;20173;-70
2021/07/04 17:24:23;;;;;;;1292.45;999.90;;;18.00;99.90;;;;;;5054613;28;20682;-70
2021/07/04 17:26:49;;;;;;;1286.00;999.90;;;17.90;99.90;;;;;;5055382;28;20243;-70
2021/07/04 17:29:14;;;;;;;1285.70;999.90;;;17.70;99.90;;;;;;5054801;28;20200;-70
2021/07/04 17:31:40;;;;;;;1259.65;999.90;;;17.70;99.90;;;;;;5054658;28;20161;-70
2021/07/04 17:34:06;;;;;;;1240.25;999.90;;;17.60;99.90;;;;;;5054749;28;20175;-70
2021/07/04 17:36:34;;;;;;;1239.90;999.90;;;17.60;99.90;;;;;;5053831;28;20176;-70
2021/07/04 17:39:03;;;;;;;1193.10;999.90;;;17.40;99.90;;;;;;5054714;28;20193;-70
2021/07/04 17:41:31;;;;;;;1183.10;999.90;;;17.40;99.90;;;;;;5054918;28;20180;-70
2021/07/04 17:43:57;;;;;;;1179.68;999.90;;;17.40;99.90;;;;;;5054893;28;20527;-70
2021/07/04 17:46:23;;;;;;;1144.07;999.90;;;17.30;99.90;;;;;;5054833;28;20162;-70
2021/07/04 17:48:49;;;;;;;1142.20;999.90;;;17.30;99.90;;;;;;5053607;28;20165;-70
2021/07/04 17:51:15;;;;;;;1147.47;999.90;;;17.30;99.90;;;;;;5054657;28;20512;-70
2021/07/04 17:53:41;;;;;;;1143.38;999.90;;;17.30;99.90;;;;;;5054580;28;20176;-70
2021/07/04 17:56:10;;;;;;;1118.47;999.90;;;17.20;99.90;;;;;;5054412;28;20187;-70
2021/07/04 17:58:36;;;;;;;1089.88;996.22;;;17.20;99.90;;;;;;5054374;28;20193;-71
2021/07/04 18:01:02;;;;;;;1079.57;992.25;;;17.30;99.90;;;;;;5054616;28;20169;-70
2021/07/04 18:03:27;;;;;;;1087.22;994.67;;;17.20;99.90;;;;;;5054549;28;20185;-70
2021/07/04 18:05:53;;;;;;;1112.75;999.90;;;17.40;99.90;;;;;;5054384;28;20177;-70
2021/07/04 18:08:21;;;;;;;1116.53;999.90;;;17.40;99.90;;;;;;5054532;28;20177;-70
2021/07/04 18:10:47;;;;;;;1125.78;999.90;;;17.40;99.90;;;;;;5054109;28;20550;-70
2021/07/04 18:13:12;;;;;;;1133.00;999.90;;;17.40;99.90;;;;;;5053911;28;20220;-70
2021/07/04 18:15:41;;;;;;;1085.68;993.28;;;17.40;99.90;;;;;;5053991;28;20164;-70
2021/07/04 18:18:07;;;;;;;1085.50;992.90;;;17.40;99.90;;;;;;5053967;28;20180;-70
2021/07/04 18:20:33;;;;;;;1137.28;999.90;;;17.50;99.90;;;;;;5052946;28;20510;-70
2021/07/04 18:22:58;;;;;;;1179.35;999.90;;;17.60;99.90;;;;;;5053819;28;20161;-70
2021/07/04 18:25:24;;;;;;;1182.65;999.90;;;17.70;99.90;;;;;;5053806;28;20181;-70
2021/07/04 18:27:50;;;;;;;1181.85;999.90;;;17.90;99.90;;;;;;5053926;28;20165;-70
2021/07/04 18:30:18;;;;;;;1189.40;999.90;;;17.90;99.90;;;;;;5053911;28;20165;-70
2021/07/04 18:32:49;;;;;;;1204.50;999.90;;;17.90;99.90;;;;;;5053804;28;20715;-70
2021/07/04 18:35:15;;;;;;;1257.45;999.90;;;18.00;99.90;;;;;;5053720;28;20173;-70
2021/07/04 18:37:41;;;;;;;1282.18;999.90;;;18.10;99.90;;;;;;5053545;28;20177;-70
2021/07/04 18:40:08;;;;;;;1216.30;999.90;;;18.10;99.90;;;;;;5053724;28;20176;-70
2021/07/04 18:42:34;;;;;;;1252.63;999.90;;;18.00;99.90;;;;;;5053752;28;20516;-70
2021/07/04 18:45:00;;;;;;;1217.97;999.90;;;17.80;99.90;;;;;;5053619;28;20203;-70
2021/07/04 18:47:26;;;;;;;1213.00;999.90;;;17.70;99.90;;;;;;5053640;28;20169;-70
2021/07/04 18:49:52;;;;;;;1173.53;999.90;;;17.50;99.90;;;;;;5053442;28;20565;-70
2021/07/04 18:52:18;;;;;;;1129.90;999.90;;;17.30;99.90;;;;;;5053605;28;20610;-70
2021/07/04 18:54:46;;;;;;;1116.75;999.90;;;17.20;99.90;;;;;;5053813;28;20193;-70
2021/07/04 19:00:05;;;;;;;1086.47;994.65;;;17.30;99.90;;;;;;5053938;28;20169;-70
2021/07/04 19:02:31;;;;;;;1066.75;983.88;;;17.40;99.90;;;;;;5053428;28;20177;-70
2021/07/04 19:04:56;;;;;;;1119.18;999.90;;;17.40;99.90;;;;;;5053365;28;20279;-70
2021/07/04 19:07:30;;;;;;;1164.15;999.90;;;17.70;99.90;;;;;;5053613;28;20231;-70
2021/07/04 19:09:56;;;;;;;1171.43;999.90;;;17.80;99.90;;;;;;5053456;28;20517;-70
2021/07/04 19:12:21;;;;;;;1203.10;999.90;;;18.00;99.90;;;;;;5053301;28;20181;-70
2021/07/04 19:14:49;;;;;;;1188.43;999.90;;;17.90;99.90;;;;;;5053231;28;20225;-70
